sensor_id;sensor_type;location;lat;lon;timestamp;temperature;humidity
13229;DHT22;6680;53.220;10.402;2023-09-18T00:04:28;17.80;99.90
13229;DHT22;6680;53.220;10.402;2023-09-18T00:06:57;17.70;99.90
13229;DHT22;6680;53.220;10.402;2023-09-18T00:09:45;17.70;99.90
13229;DHT22;6680;53.220;10.402;2023-09-18T00:14:50;17.60;99.90
13229;DHT22;6680;53.220;10.402;2023-09-18T00:20:13;17.60;99.90
13229;DHT22;6680;53.220;10.402;2023-09-18T00:22:58;17.60;99.90
13229;DHT22;6680;53.220;10.402;2023-09-18T00:30:22;17.60;99.90
13229;DHT22;6680;53.220;10.402;2023-09-18T00:40:24;17.50;99.90
13229;DHT22;6680;53.220;10.402;2023-09-18T00:42:53;17.50;99.90
13229;DHT22;6680;53.220;10.402;2023-09-18T00:45:27;17.40;99.90
13229;DHT22;6680;53.220;10.402;2023-09-18T00:50:22;17.40;99.90
13229;DHT22;6680;53.220;10.402;2023-09-18T01:00:24;17.30;99.90
13229;DHT22;6680;53.220;10.402;2023-09-18T01:02:56;17.30;99.90
13229;DHT22;6680;53.220;10.402;2023-09-18T01:05:32;17.20;99.90
13229;DHT22;6680;53.220;10.402;2023-09-18T01:10:32;17.20;99.90
13229;DHT22;6680;53.220;10.402;2023-09-18T01:13:12;17.10;99.90
13229;DHT22;6680;53.220;10.402;2023-09-18T01:15:44;18.50;99.90
13229;DHT22;6680;53.220;10.402;2023-09-18T01:18:16;17.10;99.90
13229;DHT22;6680;53.220;10.402;2023-09-18T01:20:46;17.10;99.90
13229;DHT22;6680;53.220;10.402;2023-09-18T01:23:22;17.10;99.90
13229;DHT22;6680;53.220;10.402;2023-09-18T01:33:11;17.00;99.90
13229;DHT22;6680;53.220;10.402;2023-09-18T01:35:40;17.00;99.90
13229;DHT22;6680;53.220;10.402;2023-09-18T01:40:59;17.00;99.90
13229;DHT22;6680;53.220;10.402;2023-09-18T01:58:19;16.80;99.90
13229;DHT22;6680;53.220;10.402;2023-09-18T02:15:40;16.70;99.90
13229;DHT22;6680;53.220;10.402;2023-09-18T02:18:14;16.60;99.90
13229;DHT22;6680;53.220;10.402;2023-09-18T02:23:16;16.60;99.90
13229;DHT22;6680;53.220;10.402;2023-09-18T02:26:01;16.60;99.90
13229;DHT22;6680;53.220;10.402;2023-09-18T02:30:58;16.50;99.90
13229;DHT22;6680;53.220;10.402;2023-09-18T02:48:09;16.40;99.90
13229;DHT22;6680;53.220;10.402;2023-09-18T02:53:06;13.50;99.90
13229;DHT22;6680;53.220;10.402;2023-09-18T02:58:10;16.30;99.90
13229;DHT22;6680;53.220;10.402;2023-09-18T03:00:41;16.30;99.90
13229;DHT22;6680;53.220;10.402;2023-09-18T03:03:10;16.30;99.90
13229;DHT22;6680;53.220;10.402;2023-09-18T03:10:33;16.30;99.90
13229;DHT22;6680;53.220;10.402;2023-09-18T03:17:58;16.20;99.90
13229;DHT22;6680;53.220;10.402;2023-09-18T03:20:30;16.30;99.90
13229;DHT22;6680;53.220;10.402;2023-09-18T03:22:59;16.20;99.90
13229;DHT22;6680;53.220;10.402;2023-09-18T03:27:55;16.20;99.90
13229;DHT22;6680;53.220;10.402;2023-09-18T03:30:24;16.20;99.90
13229;DHT22;6680;53.220;10.402;2023-09-18T03:35:19;16.10;99.90
13229;DHT22;6680;53.220;10.402;2023-09-18T03:37:48;16.10;99.90
13229;DHT22;6680;53.220;10.402;2023-09-18T03:40:16;16.10;99.90
13229;DHT22;6680;53.220;10.402;2023-09-18T03:45:10;16.10;99.90
13229;DHT22;6680;53.220;10.402;2023-09-18T03:47:38;16.10;99.90
13229;DHT22;6680;53.220;10.402;2023-09-18T03:50:06;16.40;99.90
13229;DHT22;6680;53.220;10.402;2023-09-18T03:55:02;16.10;99.90
13229;DHT22;6680;53.220;10.402;2023-09-18T04:02:25;16.10;99.90
13229;DHT22;6680;53.220;10.402;2023-09-18T04:04:53;16.10;99.90
13229;DHT22;6680;53.220;10.402;2023-09-18T04:12:16;16.00;99.90
13229;DHT22;6680;53.220;10.402;2023-09-18T04:24:38;16.00;99.90
13229;DHT22;6680;53.220;10.402;2023-09-18T04:29:35;16.00;99.90
13229;DHT22;6680;53.220;10.402;2023-09-18T04:32:03;16.00;99.90
13229;DHT22;6680;53.220;10.402;2023-09-18T04:46:51;16.10;99.90
13229;DHT22;6680;53.220;10.402;2023-09-18T05:04:04;16.10;99.90
13229;DHT22;6680;53.220;10.402;2023-09-18T05:13:53;15.90;99.90
13229;DHT22;6680;53.220;10.402;2023-09-18T05:18:47;16.20;99.90
13229;DHT22;6680;53.220;10.402;2023-09-18T05:21:15;16.30;99.90
13229;DHT22;6680;53.220;10.402;2023-09-18T05:33:37;16.50;99.90
13229;DHT22;6680;53.220;10.402;2023-09-18T05:36:04;16.60;99.90
13229;DHT22;6680;53.220;10.402;2023-09-18T05:38:32;16.70;99.90
13229;DHT22;6680;53.220;10.402;2023-09-18T05:40:59;16.70;99.90
13229;DHT22;6680;53.220;10.402;2023-09-18T05:43:26;16.70;99.90
13229;DHT22;6680;53.220;10.402;2023-09-18T05:45:53;16.80;99.90
13229;DHT22;6680;53.220;10.402;2023-09-18T05:48:20;16.90;99.90
13229;DHT22;6680;53.220;10.402;2023-09-18T05:50:46;16.90;99.90
13229;DHT22;6680;53.220;10.402;2023-09-18T05:53:14;17.00;99.90
13229;DHT22;6680;53.220;10.402;2023-09-18T05:55:42;17.10;99.90
13229;DHT22;6680;53.220;10.402;2023-09-18T05:58:09;17.30;99.90
13229;DHT22;6680;53.220;10.402;2023-09-18T06:00:35;17.40;99.90
13229;DHT22;6680;53.220;10.402;2023-09-18T06:03:03;17.50;99.90
13229;DHT22;6680;53.220;10.402;2023-09-18T06:05:31;17.60;99.90
13229;DHT22;6680;53.220;10.402;2023-09-18T06:07:59;17.80;99.90
13229;DHT22;6680;53.220;10.402;2023-09-18T06:10:26;17.90;99.90
13229;DHT22;6680;53.220;10.402;2023-09-18T06:12:54;18.10;99.90
13229;DHT22;6680;53.220;10.402;2023-09-18T06:15:21;18.30;99.90
13229;DHT22;6680;53.220;10.402;2023-09-18T06:17:48;18.60;99.90
13229;DHT22;6680;53.220;10.402;2023-09-18T06:20:15;18.80;99.90
13229;DHT22;6680;53.220;10.402;2023-09-18T06:22:42;18.90;99.90
13229;DHT22;6680;53.220;10.402;2023-09-18T06:25:09;19.00;99.90
13229;DHT22;6680;53.220;10.402;2023-09-18T06:27:37;19.10;99.90
13229;DHT22;6680;53.220;10.402;2023-09-18T06:30:07;19.20;99.90
13229;DHT22;6680;53.220;10.402;2023-09-18T06:32:34;19.30;99.90
13229;DHT22;6680;53.220;10.402;2023-09-18T06:35:02;19.40;99.90
13229;DHT22;6680;53.220;10.402;2023-09-18T06:37:29;19.50;99.90
13229;DHT22;6680;53.220;10.402;2023-09-18T06:39:56;19.60;99.90
13229;DHT22;6680;53.220;10.402;2023-09-18T06:42:23;19.60;99.90
13229;DHT22;6680;53.220;10.402;2023-09-18T06:44:50;19.70;99.90
13229;DHT22;6680;53.220;10.402;2023-09-18T06:47:19;19.70;99.90
13229;DHT22;6680;53.220;10.402;2023-09-18T06:49:46;19.80;99.90
13229;DHT22;6680;53.220;10.402;2023-09-18T06:52:13;19.80;99.90
13229;DHT22;6680;53.220;10.402;2023-09-18T06:54:40;19.70;99.90
13229;DHT22;6680;53.220;10.402;2023-09-18T06:57:08;19.70;99.90
13229;DHT22;6680;53.220;10.402;2023-09-18T06:59:35;19.60;99.90
13229;DHT22;6680;53.220;10.402;2023-09-18T07:02:02;19.60;99.90
13229;DHT22;6680;53.220;10.402;2023-09-18T07:04:30;19.60;99.90
13229;DHT22;6680;53.220;10.402;2023-09-18T07:06:57;19.50;99.90
13229;DHT22;6680;53.220;10.402;2023-09-18T07:09:24;19.50;99.90
13229;DHT22;6680;53.220;10.402;2023-09-18T07:11:51;19.60;99.90
13229;DHT22;6680;53.220;10.402;2023-09-18T07:14:18;19.70;99.90
13229;DHT22;6680;53.220;10.402;2023-09-18T07:16:45;19.70;99.90
13229;DHT22;6680;53.220;10.402;2023-09-18T07:19:12;19.80;99.90
13229;DHT22;6680;53.220;10.402;2023-09-18T07:21:43;19.90;99.90
13229;DHT22;6680;53.220;10.402;2023-09-18T07:24:10;19.90;99.90
13229;DHT22;6680;53.220;10.402;2023-09-18T07:26:44;19.90;99.90
13229;DHT22;6680;53.220;10.402;2023-09-18T07:29:12;20.00;99.90
13229;DHT22;6680;53.220;10.402;2023-09-18T07:31:39;20.20;99.90
13229;DHT22;6680;53.220;10.402;2023-09-18T07:34:06;20.30;99.90
13229;DHT22;6680;53.220;10.402;2023-09-18T07:36:33;20.30;99.90
13229;DHT22;6680;53.220;10.402;2023-09-18T07:39:01;20.40;99.90
13229;DHT22;6680;53.220;10.402;2023-09-18T07:41:30;20.40;99.90
13229;DHT22;6680;53.220;10.402;2023-09-18T07:43:56;20.70;99.90
13229;DHT22;6680;53.220;10.402;2023-09-18T07:46:24;20.60;99.90
13229;DHT22;6680;53.220;10.402;2023-09-18T07:48:51;20.70;99.90
13229;DHT22;6680;53.220;10.402;2023-09-18T07:51:18;20.80;99.90
13229;DHT22;6680;53.220;10.402;2023-09-18T07:53:45;20.90;99.90
13229;DHT22;6680;53.220;10.402;2023-09-18T07:56:13;21.00;99.90
13229;DHT22;6680;53.220;10.402;2023-09-18T07:58:40;21.20;99.90
13229;DHT22;6680;53.220;10.402;2023-09-18T08:01:07;21.30;99.90
13229;DHT22;6680;53.220;10.402;2023-09-18T08:03:35;21.30;99.90
13229;DHT22;6680;53.220;10.402;2023-09-18T08:06:02;21.30;99.90
13229;DHT22;6680;53.220;10.402;2023-09-18T08:08:30;21.30;99.90
13229;DHT22;6680;53.220;10.402;2023-09-18T08:11:00;21.30;99.90
13229;DHT22;6680;53.220;10.402;2023-09-18T08:13:28;21.30;99.90
13229;DHT22;6680;53.220;10.402;2023-09-18T08:15:55;21.30;99.90
13229;DHT22;6680;53.220;10.402;2023-09-18T08:18:22;21.30;99.90
13229;DHT22;6680;53.220;10.402;2023-09-18T08:20:52;21.30;99.90
13229;DHT22;6680;53.220;10.402;2023-09-18T08:23:19;21.20;99.90
13229;DHT22;6680;53.220;10.402;2023-09-18T08:25:46;21.20;99.90
13229;DHT22;6680;53.220;10.402;2023-09-18T08:28:14;21.20;99.90
13229;DHT22;6680;53.220;10.402;2023-09-18T08:30:43;21.10;99.90
13229;DHT22;6680;53.220;10.402;2023-09-18T08:33:12;21.00;99.90
13229;DHT22;6680;53.220;10.402;2023-09-18T08:35:39;21.00;99.90
13229;DHT22;6680;53.220;10.402;2023-09-18T08:38:06;21.00;99.90
13229;DHT22;6680;53.220;10.402;2023-09-18T08:40:34;21.00;99.90
13229;DHT22;6680;53.220;10.402;2023-09-18T08:43:01;21.10;99.90
13229;DHT22;6680;53.220;10.402;2023-09-18T08:45:35;21.10;99.90
13229;DHT22;6680;53.220;10.402;2023-09-18T08:48:04;21.30;99.90
13229;DHT22;6680;53.220;10.402;2023-09-18T08:50:33;21.30;99.90
13229;DHT22;6680;53.220;10.402;2023-09-18T08:53:01;21.30;99.90
13229;DHT22;6680;53.220;10.402;2023-09-18T08:55:28;21.30;99.90
13229;DHT22;6680;53.220;10.402;2023-09-18T08:57:58;21.30;99.90
13229;DHT22;6680;53.220;10.402;2023-09-18T09:00:25;21.20;99.90
13229;DHT22;6680;53.220;10.402;2023-09-18T09:02:52;21.10;99.90
13229;DHT22;6680;53.220;10.402;2023-09-18T09:05:21;21.00;99.90
13229;DHT22;6680;53.220;10.402;2023-09-18T09:07:49;20.90;99.90
13229;DHT22;6680;53.220;10.402;2023-09-18T09:10:18;20.90;99.90
13229;DHT22;6680;53.220;10.402;2023-09-18T09:12:50;20.90;99.90
13229;DHT22;6680;53.220;10.402;2023-09-18T09:15:19;20.90;99.90
13229;DHT22;6680;53.220;10.402;2023-09-18T09:17:47;20.90;99.90
13229;DHT22;6680;53.220;10.402;2023-09-18T09:20:15;21.00;99.90
13229;DHT22;6680;53.220;10.402;2023-09-18T09:22:44;21.20;99.90
13229;DHT22;6680;53.220;10.402;2023-09-18T09:25:25;21.40;99.90
13229;DHT22;6680;53.220;10.402;2023-09-18T09:27:57;21.70;99.90
13229;DHT22;6680;53.220;10.402;2023-09-18T09:30:26;22.00;99.90
13229;DHT22;6680;53.220;10.402;2023-09-18T09:32:54;22.20;99.90
13229;DHT22;6680;53.220;10.402;2023-09-18T09:35:22;22.50;99.90
13229;DHT22;6680;53.220;10.402;2023-09-18T09:37:51;22.50;99.90
13229;DHT22;6680;53.220;10.402;2023-09-18T09:40:20;22.60;99.90
13229;DHT22;6680;53.220;10.402;2023-09-18T09:42:47;22.70;99.90
13229;DHT22;6680;53.220;10.402;2023-09-18T09:45:15;22.70;99.90
13229;DHT22;6680;53.220;10.402;2023-09-18T09:47:42;22.80;99.90
13229;DHT22;6680;53.220;10.402;2023-09-18T09:50:10;22.80;99.90
13229;DHT22;6680;53.220;10.402;2023-09-18T09:52:42;22.90;99.90
13229;DHT22;6680;53.220;10.402;2023-09-18T09:55:30;23.00;99.90
13229;DHT22;6680;53.220;10.402;2023-09-18T09:58:00;23.10;99.90
13229;DHT22;6680;53.220;10.402;2023-09-18T10:00:30;23.30;99.90
13229;DHT22;6680;53.220;10.402;2023-09-18T10:03:04;23.30;99.90
13229;DHT22;6680;53.220;10.402;2023-09-18T10:05:34;23.40;99.90
13229;DHT22;6680;53.220;10.402;2023-09-18T10:08:04;23.50;99.90
13229;DHT22;6680;53.220;10.402;2023-09-18T10:10:35;23.50;99.90
13229;DHT22;6680;53.220;10.402;2023-09-18T10:13:09;23.50;99.90
13229;DHT22;6680;53.220;10.402;2023-09-18T10:15:37;23.60;99.90
13229;DHT22;6680;53.220;10.402;2023-09-18T10:18:07;23.50;99.90
13229;DHT22;6680;53.220;10.402;2023-09-18T10:20:40;23.50;99.90
13229;DHT22;6680;53.220;10.402;2023-09-18T10:23:36;23.40;99.90
13229;DHT22;6680;53.220;10.402;2023-09-18T10:26:07;23.40;99.90
13229;DHT22;6680;53.220;10.402;2023-09-18T10:28:38;23.40;99.90
13229;DHT22;6680;53.220;10.402;2023-09-18T10:31:07;23.50;99.90
13229;DHT22;6680;53.220;10.402;2023-09-18T10:33:35;23.50;99.90
13229;DHT22;6680;53.220;10.402;2023-09-18T10:36:05;23.40;99.90
13229;DHT22;6680;53.220;10.402;2023-09-18T10:38:33;23.30;99.90
13229;DHT22;6680;53.220;10.402;2023-09-18T10:41:01;23.30;99.90
13229;DHT22;6680;53.220;10.402;2023-09-18T10:43:31;23.30;99.90
13229;DHT22;6680;53.220;10.402;2023-09-18T10:45:58;23.20;99.90
13229;DHT22;6680;53.220;10.402;2023-09-18T10:48:26;23.30;99.90
13229;DHT22;6680;53.220;10.402;2023-09-18T10:50:53;23.30;99.90
13229;DHT22;6680;53.220;10.402;2023-09-18T10:53:20;23.40;99.90
13229;DHT22;6680;53.220;10.402;2023-09-18T10:55:49;23.50;99.90
13229;DHT22;6680;53.220;10.402;2023-09-18T10:58:24;23.70;99.90
13229;DHT22;6680;53.220;10.402;2023-09-18T11:00:54;23.80;99.90
13229;DHT22;6680;53.220;10.402;2023-09-18T11:03:23;23.90;99.90
13229;DHT22;6680;53.220;10.402;2023-09-18T11:06:03;24.00;99.90
13229;DHT22;6680;53.220;10.402;2023-09-18T11:08:32;24.10;99.90
13229;DHT22;6680;53.220;10.402;2023-09-18T11:11:01;24.10;99.90
13229;DHT22;6680;53.220;10.402;2023-09-18T11:13:36;24.10;99.90
13229;DHT22;6680;53.220;10.402;2023-09-18T11:16:18;24.20;99.90
13229;DHT22;6680;53.220;10.402;2023-09-18T11:18:51;24.30;99.90
13229;DHT22;6680;53.220;10.402;2023-09-18T11:21:24;24.50;99.90
13229;DHT22;6680;53.220;10.402;2023-09-18T11:23:58;24.70;99.90
13229;DHT22;6680;53.220;10.402;2023-09-18T11:26:28;24.60;99.90
13229;DHT22;6680;53.220;10.402;2023-09-18T11:28:58;24.50;99.90
13229;DHT22;6680;53.220;10.402;2023-09-18T11:31:45;24.50;99.90
13229;DHT22;6680;53.220;10.402;2023-09-18T11:34:20;24.40;99.90
13229;DHT22;6680;53.220;10.402;2023-09-18T11:36:47;24.50;99.90
13229;DHT22;6680;53.220;10.402;2023-09-18T11:39:32;24.60;99.90
13229;DHT22;6680;53.220;10.402;2023-09-18T11:42:07;24.70;99.90
13229;DHT22;6680;53.220;10.402;2023-09-18T11:44:35;24.70;99.90
13229;DHT22;6680;53.220;10.402;2023-09-18T11:47:09;24.80;99.90
13229;DHT22;6680;53.220;10.402;2023-09-18T11:49:46;24.90;99.90
13229;DHT22;6680;53.220;10.402;2023-09-18T11:52:16;24.80;99.90
13229;DHT22;6680;53.220;10.402;2023-09-18T11:54:44;24.70;99.90
13229;DHT22;6680;53.220;10.402;2023-09-18T11:57:12;24.50;99.90
13229;DHT22;6680;53.220;10.402;2023-09-18T11:59:41;24.50;99.90
13229;DHT22;6680;53.220;10.402;2023-09-18T12:02:10;24.40;99.90
13229;DHT22;6680;53.220;10.402;2023-09-18T12:04:46;24.30;99.90
13229;DHT22;6680;53.220;10.402;2023-09-18T12:07:13;24.30;99.90
13229;DHT22;6680;53.220;10.402;2023-09-18T12:09:40;24.30;99.90
13229;DHT22;6680;53.220;10.402;2023-09-18T12:12:07;24.40;99.90
13229;DHT22;6680;53.220;10.402;2023-09-18T12:14:34;24.60;99.90
13229;DHT22;6680;53.220;10.402;2023-09-18T12:17:02;24.70;99.90
13229;DHT22;6680;53.220;10.402;2023-09-18T12:19:31;24.80;99.90
13229;DHT22;6680;53.220;10.402;2023-09-18T12:21:59;24.80;99.90
13229;DHT22;6680;53.220;10.402;2023-09-18T12:24:27;24.90;99.90
13229;DHT22;6680;53.220;10.402;2023-09-18T12:26:54;24.90;99.90
13229;DHT22;6680;53.220;10.402;2023-09-18T12:29:21;24.90;99.90
13229;DHT22;6680;53.220;10.402;2023-09-18T12:31:48;25.10;99.90
13229;DHT22;6680;53.220;10.402;2023-09-18T12:34:16;25.30;99.90
13229;DHT22;6680;53.220;10.402;2023-09-18T12:36:46;25.50;99.90
13229;DHT22;6680;53.220;10.402;2023-09-18T12:39:13;25.50;99.90
13229;DHT22;6680;53.220;10.402;2023-09-18T12:41:42;25.60;99.90
13229;DHT22;6680;53.220;10.402;2023-09-18T12:46:38;25.40;99.90
13229;DHT22;6680;53.220;10.402;2023-09-18T12:49:17;25.30;99.90
13229;DHT22;6680;53.220;10.402;2023-09-18T12:51:54;25.10;99.90
13229;DHT22;6680;53.220;10.402;2023-09-18T12:54:21;25.00;99.90
13229;DHT22;6680;53.220;10.402;2023-09-18T12:57:04;24.80;99.90
13229;DHT22;6680;53.220;10.402;2023-09-18T12:59:31;24.70;99.90
13229;DHT22;6680;53.220;10.402;2023-09-18T13:01:58;24.70;99.90
13229;DHT22;6680;53.220;10.402;2023-09-18T13:04:25;24.80;99.90
13229;DHT22;6680;53.220;10.402;2023-09-18T13:07:05;24.80;99.90
13229;DHT22;6680;53.220;10.402;2023-09-18T13:09:32;24.80;99.90
13229;DHT22;6680;53.220;10.402;2023-09-18T13:12:01;24.80;99.90
13229;DHT22;6680;53.220;10.402;2023-09-18T13:14:28;25.00;99.90
13229;DHT22;6680;53.220;10.402;2023-09-18T13:17:00;25.10;99.90
13229;DHT22;6680;53.220;10.402;2023-09-18T13:19:28;25.10;99.90
13229;DHT22;6680;53.220;10.402;2023-09-18T13:21:55;25.10;99.90
13229;DHT22;6680;53.220;10.402;2023-09-18T13:24:26;25.00;99.90
13229;DHT22;6680;53.220;10.402;2023-09-18T13:26:54;24.90;99.90
13229;DHT22;6680;53.220;10.402;2023-09-18T13:29:20;24.80;99.90
13229;DHT22;6680;53.220;10.402;2023-09-18T13:31:47;24.60;99.90
13229;DHT22;6680;53.220;10.402;2023-09-18T13:39:17;24.10;99.90
13229;DHT22;6680;53.220;10.402;2023-09-18T13:41:45;24.10;99.90
13229;DHT22;6680;53.220;10.402;2023-09-18T13:44:12;24.00;99.90
13229;DHT22;6680;53.220;10.402;2023-09-18T13:46:39;23.90;99.90
13229;DHT22;6680;53.220;10.402;2023-09-18T13:49:06;23.90;99.90
13229;DHT22;6680;53.220;10.402;2023-09-18T13:51:33;23.90;99.90
13229;DHT22;6680;53.220;10.402;2023-09-18T13:59:04;23.80;99.90
13229;DHT22;6680;53.220;10.402;2023-09-18T14:01:41;23.70;99.90
13229;DHT22;6680;53.220;10.402;2023-09-18T14:14:44;23.40;99.90
13229;DHT22;6680;53.220;10.402;2023-09-18T14:17:11;23.50;99.90
13229;DHT22;6680;53.220;10.402;2023-09-18T14:19:38;23.30;99.90
13229;DHT22;6680;53.220;10.402;2023-09-18T14:22:06;23.40;99.90
13229;DHT22;6680;53.220;10.402;2023-09-18T14:24:33;23.30;99.90
13229;DHT22;6680;53.220;10.402;2023-09-18T14:27:00;23.10;99.90
13229;DHT22;6680;53.220;10.402;2023-09-18T14:29:27;23.20;99.90
13229;DHT22;6680;53.220;10.402;2023-09-18T14:31:57;23.20;99.90
13229;DHT22;6680;53.220;10.402;2023-09-18T14:34:24;23.20;99.90
13229;DHT22;6680;53.220;10.402;2023-09-18T14:36:50;23.10;99.90
13229;DHT22;6680;53.220;10.402;2023-09-18T14:39:17;23.10;99.90
13229;DHT22;6680;53.220;10.402;2023-09-18T14:41:44;23.00;99.90
13229;DHT22;6680;53.220;10.402;2023-09-18T14:44:13;23.10;99.90
13229;DHT22;6680;53.220;10.402;2023-09-18T14:46:40;23.10;99.90
13229;DHT22;6680;53.220;10.402;2023-09-18T14:49:10;23.10;99.90
13229;DHT22;6680;53.220;10.402;2023-09-18T14:51:36;23.20;99.90
13229;DHT22;6680;53.220;10.402;2023-09-18T14:54:03;23.40;99.90
13229;DHT22;6680;53.220;10.402;2023-09-18T14:56:32;23.30;99.90
13229;DHT22;6680;53.220;10.402;2023-09-18T14:59:01;23.30;99.90
13229;DHT22;6680;53.220;10.402;2023-09-18T15:01:27;23.20;99.90
13229;DHT22;6680;53.220;10.402;2023-09-18T15:03:54;23.20;99.90
13229;DHT22;6680;53.220;10.402;2023-09-18T15:06:23;23.20;99.90
13229;DHT22;6680;53.220;10.402;2023-09-18T15:08:51;23.20;99.90
13229;DHT22;6680;53.220;10.402;2023-09-18T15:11:18;23.20;99.90
13229;DHT22;6680;53.220;10.402;2023-09-18T15:13:45;23.20;99.90
13229;DHT22;6680;53.220;10.402;2023-09-18T15:16:12;23.20;99.90
13229;DHT22;6680;53.220;10.402;2023-09-18T15:18:39;23.10;99.90
13229;DHT22;6680;53.220;10.402;2023-09-18T15:21:06;23.00;99.90
13229;DHT22;6680;53.220;10.402;2023-09-18T15:23:34;23.00;99.90
13229;DHT22;6680;53.220;10.402;2023-09-18T15:26:01;22.90;99.90
13229;DHT22;6680;53.220;10.402;2023-09-18T15:28:28;22.80;99.90
13229;DHT22;6680;53.220;10.402;2023-09-18T15:30:55;22.70;99.90
13229;DHT22;6680;53.220;10.402;2023-09-18T15:33:22;22.70;99.90
13229;DHT22;6680;53.220;10.402;2023-09-18T15:35:50;22.60;99.90
13229;DHT22;6680;53.220;10.402;2023-09-18T15:38:18;22.50;99.90
13229;DHT22;6680;53.220;10.402;2023-09-18T15:40:47;22.60;99.90
13229;DHT22;6680;53.220;10.402;2023-09-18T15:43:15;22.50;99.90
13229;DHT22;6680;53.220;10.402;2023-09-18T15:45:43;22.40;99.90
13229;DHT22;6680;53.220;10.402;2023-09-18T15:48:09;22.30;99.90
13229;DHT22;6680;53.220;10.402;2023-09-18T15:50:36;22.30;99.90
13229;DHT22;6680;53.220;10.402;2023-09-18T15:53:03;22.30;99.90
13229;DHT22;6680;53.220;10.402;2023-09-18T15:55:30;22.20;99.90
13229;DHT22;6680;53.220;10.402;2023-09-18T15:57:58;22.20;99.90
13229;DHT22;6680;53.220;10.402;2023-09-18T16:00:25;22.10;99.90
13229;DHT22;6680;53.220;10.402;2023-09-18T16:02:52;22.10;99.90
13229;DHT22;6680;53.220;10.402;2023-09-18T16:07:51;21.60;99.90
13229;DHT22;6680;53.220;10.402;2023-09-18T16:10:22;21.90;99.90
13229;DHT22;6680;53.220;10.402;2023-09-18T16:12:49;21.90;99.90
13229;DHT22;6680;53.220;10.402;2023-09-18T16:15:17;21.90;99.90
13229;DHT22;6680;53.220;10.402;2023-09-18T16:17:47;21.90;99.90
13229;DHT22;6680;53.220;10.402;2023-09-18T16:20:14;21.90;99.90
13229;DHT22;6680;53.220;10.402;2023-09-18T16:22:41;21.80;99.90
13229;DHT22;6680;53.220;10.402;2023-09-18T16:25:12;21.80;99.90
13229;DHT22;6680;53.220;10.402;2023-09-18T16:27:39;21.80;99.90
13229;DHT22;6680;53.220;10.402;2023-09-18T16:30:08;21.80;99.90
13229;DHT22;6680;53.220;10.402;2023-09-18T16:32:38;21.90;99.90
13229;DHT22;6680;53.220;10.402;2023-09-18T16:35:05;21.90;99.90
13229;DHT22;6680;53.220;10.402;2023-09-18T16:37:32;21.80;99.90
13229;DHT22;6680;53.220;10.402;2023-09-18T16:39:59;21.70;99.90
13229;DHT22;6680;53.220;10.402;2023-09-18T16:42:26;21.70;99.90
13229;DHT22;6680;53.220;10.402;2023-09-18T16:44:53;21.60;99.90
13229;DHT22;6680;53.220;10.402;2023-09-18T16:47:19;21.50;99.90
13229;DHT22;6680;53.220;10.402;2023-09-18T16:49:51;21.40;99.90
13229;DHT22;6680;53.220;10.402;2023-09-18T16:52:18;21.30;99.90
13229;DHT22;6680;53.220;10.402;2023-09-18T16:54:45;21.20;99.90
13229;DHT22;6680;53.220;10.402;2023-09-18T16:57:12;21.10;99.90
13229;DHT22;6680;53.220;10.402;2023-09-18T16:59:39;21.10;99.90
13229;DHT22;6680;53.220;10.402;2023-09-18T17:02:06;21.00;99.90
13229;DHT22;6680;53.220;10.402;2023-09-18T17:04:33;20.90;99.90
13229;DHT22;6680;53.220;10.402;2023-09-18T17:07:06;20.90;99.90
13229;DHT22;6680;53.220;10.402;2023-09-18T17:09:35;20.80;99.90
13229;DHT22;6680;53.220;10.402;2023-09-18T17:12:01;20.80;99.90
13229;DHT22;6680;53.220;10.402;2023-09-18T17:14:29;20.70;99.90
13229;DHT22;6680;53.220;10.402;2023-09-18T17:16:56;20.70;99.90
13229;DHT22;6680;53.220;10.402;2023-09-18T17:19:22;20.60;99.90
13229;DHT22;6680;53.220;10.402;2023-09-18T17:21:49;20.60;99.90
13229;DHT22;6680;53.220;10.402;2023-09-18T17:24:17;20.50;99.90
13229;DHT22;6680;53.220;10.402;2023-09-18T17:26:44;20.50;99.90
13229;DHT22;6680;53.220;10.402;2023-09-18T17:29:11;20.50;99.90
13229;DHT22;6680;53.220;10.402;2023-09-18T17:31:38;20.50;99.90
13229;DHT22;6680;53.220;10.402;2023-09-18T17:34:04;20.30;99.90
13229;DHT22;6680;53.220;10.402;2023-09-18T17:36:31;20.30;99.90
13229;DHT22;6680;53.220;10.402;2023-09-18T17:38:58;20.30;99.90
13229;DHT22;6680;53.220;10.402;2023-09-18T17:41:26;20.30;99.90
13229;DHT22;6680;53.220;10.402;2023-09-18T17:43:53;20.30;99.90
13229;DHT22;6680;53.220;10.402;2023-09-18T17:46:20;20.30;99.90
13229;DHT22;6680;53.220;10.402;2023-09-18T17:48:47;20.20;99.90
13229;DHT22;6680;53.220;10.402;2023-09-18T17:51:14;20.00;99.90
13229;DHT22;6680;53.220;10.402;2023-09-18T17:53:40;20.10;99.90
13229;DHT22;6680;53.220;10.402;2023-09-18T17:56:07;20.10;99.90
13229;DHT22;6680;53.220;10.402;2023-09-18T17:58:35;20.10;99.90
13229;DHT22;6680;53.220;10.402;2023-09-18T18:01:02;19.90;99.90
13229;DHT22;6680;53.220;10.402;2023-09-18T18:03:31;19.90;99.90
13229;DHT22;6680;53.220;10.402;2023-09-18T18:05:58;19.90;99.90
13229;DHT22;6680;53.220;10.402;2023-09-18T18:08:25;19.90;99.90
13229;DHT22;6680;53.220;10.402;2023-09-18T18:10:51;19.90;99.90
13229;DHT22;6680;53.220;10.402;2023-09-18T18:13:18;19.90;99.90
13229;DHT22;6680;53.220;10.402;2023-09-18T18:15:48;19.90;99.90
13229;DHT22;6680;53.220;10.402;2023-09-18T18:18:16;19.90;99.90
13229;DHT22;6680;53.220;10.402;2023-09-18T18:20:44;19.90;99.90
13229;DHT22;6680;53.220;10.402;2023-09-18T18:25:38;19.90;99.90
13229;DHT22;6680;53.220;10.402;2023-09-18T18:28:06;19.80;99.90
13229;DHT22;6680;53.220;10.402;2023-09-18T18:30:34;19.80;99.90
13229;DHT22;6680;53.220;10.402;2023-09-18T18:33:03;19.80;99.90
13229;DHT22;6680;53.220;10.402;2023-09-18T18:35:30;19.70;99.90
13229;DHT22;6680;53.220;10.402;2023-09-18T18:37:57;19.70;99.90
13229;DHT22;6680;53.220;10.402;2023-09-18T18:40:25;19.70;99.90
13229;DHT22;6680;53.220;10.402;2023-09-18T18:42:53;19.60;99.90
13229;DHT22;6680;53.220;10.402;2023-09-18T18:45:20;19.60;99.90
13229;DHT22;6680;53.220;10.402;2023-09-18T18:47:48;19.50;99.90
13229;DHT22;6680;53.220;10.402;2023-09-18T18:50:17;19.50;99.90
13229;DHT22;6680;53.220;10.402;2023-09-18T18:52:44;19.40;99.90
13229;DHT22;6680;53.220;10.402;2023-09-18T18:55:11;19.30;99.90
13229;DHT22;6680;53.220;10.402;2023-09-18T18:57:37;19.20;99.90
13229;DHT22;6680;53.220;10.402;2023-09-18T19:00:05;19.20;99.90
13229;DHT22;6680;53.220;10.402;2023-09-18T19:02:37;19.20;99.90
13229;DHT22;6680;53.220;10.402;2023-09-18T19:05:05;19.10;99.90
13229;DHT22;6680;53.220;10.402;2023-09-18T19:07:35;19.20;99.90
13229;DHT22;6680;53.220;10.402;2023-09-18T19:10:03;19.10;99.90
13229;DHT22;6680;53.220;10.402;2023-09-18T19:12:30;19.10;99.90
13229;DHT22;6680;53.220;10.402;2023-09-18T19:14:58;19.10;99.90